Flight Track Log - Related Links

Times and Time Zones

All times are in EDT time to prevent confusion due to time zone crossing. See the QLK380D flight status page for this flight to view local times or setup timezone preferences in your user account.

Time Position Orientation Groundspeed Altitude Reporting Facility
EDT Latitude Longitude Course Direction KTS MPH feet Rate Location/Type
Tue 03:00:34 AM -27.4081 153.1161 266° West 138 159 900  Level Aus ATC (RADAR)
Tue 03:01:34 AM -27.4114 153.0581 266° West 194 223 3,000 2,188 Climbing Aus ATC (RADAR)
Tue 03:01:59 AM -27.4090 153.0316 276° West 199 229 4,000 2,618 Climbing Aus ATC (RADAR)
Tue 03:02:29 AM -27.3852 153.0141 327° Northwest 205 236 5,400 2,625 Climbing Aus ATC (RADAR)
Tue 03:03:03 AM -27.3509 153.0199 North 210 242 6,800 2,582 Climbing Aus ATC (RADAR)
Tue 03:03:48 AM -27.3063 153.0140 353° North 215 247 8,800 2,593 Climbing Aus ATC (RADAR)
Tue 03:04:24 AM -27.2711 153.0058 348° North 218 251 10,300 2,400 Climbing Aus ATC (RADAR)
Tue 03:05:08 AM -27.2263 152.9949 348° North 218 251 12,000 1,703 Climbing Aus ATC (RADAR)
Tue 03:05:38 AM -27.1925 152.9911 354° North 239 275 12,400 1,412 Climbing Aus ATC (RADAR)
Tue 03:06:33 AM -27.1263 152.9802 352° North 261 300 14,000 1,341 Climbing Aus ATC (RADAR)
Tue 03:07:03 AM -27.0888 152.9732 351° North 271 312 14,300 327 Climbing Aus ATC (RADAR)
Tue 03:07:28 AM -27.0535 152.9699 355° North 295 339 14,300  Level Aus ATC (RADAR)
Tue 03:08:03 AM -27.0005 152.9685 359° North 325 374 14,300  Level Aus ATC (RADAR)
Tue 03:08:53 AM -26.9205 152.9651 358° North 345 397 14,300  Level Aus ATC (RADAR)
Tue 03:09:28 AM -26.8650 152.9624 358° North 342 394 14,300  Level Aus ATC (RADAR)
Tue 03:10:23 AM -26.7787 152.9576 357° North 339 390 14,300  Level Aus ATC (RADAR)
Tue 03:10:38 AM -26.7549 152.9564 357° North 340 391 14,300  Level Aus ATC (RADAR)
Tue 03:11:38 AM -26.6600 152.9506 357° North 341 392 14,300  Level Aus ATC (RADAR)
Tue 03:12:03 AM -26.6201 152.9482 357° North 343 395 14,300  Level Aus ATC (RADAR)
Tue 03:12:28 AM -26.5799 152.9460 357° North 346 398 14,300  Level Aus ATC (RADAR)
Tue 03:13:03 AM -26.5237 152.9427 357° North 346 398 14,300  Level Aus ATC (RADAR)
Tue 03:13:53 AM -26.4432 152.9384 357° North 347 399 14,300  Level Aus ATC (RADAR)
Tue 03:14:28 AM -26.3872 152.9351 357° North 346 398 14,300  Level Aus ATC (RADAR)
Tue 03:15:18 AM -26.3080 152.9314 358° North 342 394 14,300  Level Aus ATC (RADAR)
Tue 03:15:42 AM -26.2687 152.9304 359° North 339 390 14,300  Level Aus ATC (RADAR)
Tue 03:16:38 AM -26.1827 152.9254 357° North 339 390 14,300  Level Aus ATC (RADAR)
Tue 03:17:03 AM -26.1443 152.9240 358° North 334 384 14,300  Level Aus ATC (RADAR)
Tue 03:17:28 AM -26.1054 152.9205 355° North 334 384 14,300  Level Aus ATC (RADAR)
Tue 03:18:07 AM -26.0431 152.9178 358° North 334 384 14,300 -404 Level Aus ATC (RADAR)
Tue 03:18:57 AM -25.9653 152.9131 357° North 338 389 13,700 -1,129 Descending Aus ATC (RADAR)
Tue 03:19:32 AM -25.9098 152.9104 358° North 339 390 12,700 -1,650 Descending Aus ATC (RADAR)
Tue 03:20:17 AM -25.8416 152.9101 360° North 327 376 11,500 -1,714 Descending Aus ATC (RADAR)
Tue 03:20:42 AM -25.8054 152.9055 354° North 319 367 10,700 -1,800 Descending Aus ATC (RADAR)
Tue 03:21:37 AM -25.7282 152.9076 North 300 345 9,100 -1,624 Descending Aus ATC (RADAR)
Tue 03:22:07 AM -25.6894 152.9048 356° North 285 328 8,400 -1,418 Descending Aus ATC (RADAR)
Tue 03:22:32 AM -25.6578 152.9022 356° North 278 320 7,800 -1,400 Descending Aus ATC (RADAR)
Tue 03:23:07 AM -25.6152 152.8985 355° North 264 304 7,000 -1,360 Descending Aus ATC (RADAR)
Tue 03:23:47 AM -25.5659 152.8963 358° North 265 305 6,100 -1,440 Descending Aus ATC (RADAR)
Tue 03:24:22 AM -25.5229 152.8953 359° North 265 305 5,200 -1,440 Descending Aus ATC (RADAR)
Tue 03:25:02 AM -25.4747 152.8913 356° North 262 302 4,300 -1,350 Descending Aus ATC (RADAR)
Tue 03:27:00 AM -25.3438 152.8821 356° North  Level FlightAware Approximate

Login

Don't have an account? Register now (free) for customized features, flight alerts, and more!